メインページ
METAR-TAF:

METAR-TAF

空港 :

ペンリン島, クック諸島

緯度: 9-00-52S, 経度: 158-01-57W, 海抜: 2m

現時点の気象観測

当レポートは1時間46分前の09:00(UTC)に作成
の風 5kt
気温 28°C
湿度 70%
気圧 1011 hPa

METAR: NCPY 220900Z AUTO 10005KT //// ////// 28/22 Q1011

時間: 00:46 (10:46 UTC)


TAF: 見つかりません

4,000以上の空港の気象観測と天気予報(METAR報とTAF報)

利用可能な観測所は地図上に黄色い丸と赤い丸で示す。

丸の上にカーソルを重ねると観測所名を参照できる。

次にクリックすると気象観測と天気予報を参照できる。

マップの切り替え:黒色「×」印の緑ボタンをクリックして拡大、「-」印の緑ボタンをクリックして縮小、緑色の三角印をクリックして隣りの地図に切り替え


METAR-TAF: